sensor_id;sensor_type;location;lat;lon;timestamp;pressure;altitude;pressure_sealevel;temperature;humidity
37792;BME280;29527;55.766;37.570;2022-10-31T00:01:56;98126.69;;;1.70;55.63
37792;BME280;29527;55.766;37.570;2022-10-31T00:04:21;98118.00;;;1.68;55.76
37792;BME280;29527;55.766;37.570;2022-10-31T00:06:47;98102.41;;;1.65;55.44
37792;BME280;29527;55.766;37.570;2022-10-31T00:09:12;98106.31;;;1.72;55.29
37792;BME280;29527;55.766;37.570;2022-10-31T00:11:38;98103.69;;;1.72;55.40
37792;BME280;29527;55.766;37.570;2022-10-31T00:14:03;98092.16;;;1.73;55.29
37792;BME280;29527;55.766;37.570;2022-10-31T00:16:29;98101.53;;;1.77;54.57
37792;BME280;29527;55.766;37.570;2022-10-31T00:19:01;98103.72;;;1.83;54.67
37792;BME280;29527;55.766;37.570;2022-10-31T00:21:28;98102.53;;;1.88;54.74
37792;BME280;29527;55.766;37.570;2022-10-31T00:23:54;98087.06;;;1.83;54.65
37792;BME280;29527;55.766;37.570;2022-10-31T00:26:20;98091.16;;;1.87;54.36
37792;BME280;29527;55.766;37.570;2022-10-31T00:28:46;98062.59;;;1.68;54.34
37792;BME280;29527;55.766;37.570;2022-10-31T00:31:12;98084.44;;;1.83;54.54
37792;BME280;29527;55.766;37.570;2022-10-31T00:33:40;98092.03;;;1.75;53.81
37792;BME280;29527;55.766;37.570;2022-10-31T00:36:06;98087.41;;;1.78;53.96
37792;BME280;29527;55.766;37.570;2022-10-31T00:38:32;98072.25;;;1.69;54.29
37792;BME280;29527;55.766;37.570;2022-10-31T00:40:58;98083.00;;;1.66;54.20
37792;BME280;29527;55.766;37.570;2022-10-31T00:43:24;98076.34;;;1.73;54.15
37792;BME280;29527;55.766;37.570;2022-10-31T00:45:49;98076.56;;;1.70;54.34
37792;BME280;29527;55.766;37.570;2022-10-31T00:48:15;98078.97;;;1.73;54.28
37792;BME280;29527;55.766;37.570;2022-10-31T00:50:40;98080.84;;;1.84;54.53
37792;BME280;29527;55.766;37.570;2022-10-31T00:53:06;98091.56;;;1.94;53.11
37792;BME280;29527;55.766;37.570;2022-10-31T00:55:33;98075.56;;;1.84;53.71
37792;BME280;29527;55.766;37.570;2022-10-31T00:57:59;98079.03;;;1.84;54.01
37792;BME280;29527;55.766;37.570;2022-10-31T01:00:25;98072.63;;;1.76;53.88
37792;BME280;29527;55.766;37.570;2022-10-31T01:02:50;98084.19;;;1.86;54.01
37792;BME280;29527;55.766;37.570;2022-10-31T01:05:16;98050.59;;;1.64;53.99
37792;BME280;29527;55.766;37.570;2022-10-31T01:07:42;98080.84;;;1.84;53.61
37792;BME280;29527;55.766;37.570;2022-10-31T01:10:08;98081.22;;;1.91;53.79
37792;BME280;29527;55.766;37.570;2022-10-31T01:12:39;98074.88;;;1.93;53.86
37792;BME280;29527;55.766;37.570;2022-10-31T01:15:06;98080.16;;;1.93;53.75
37792;BME280;29527;55.766;37.570;2022-10-31T01:17:32;98082.88;;;1.92;53.54
37792;BME280;29527;55.766;37.570;2022-10-31T01:19:57;98083.66;;;1.94;53.76
37792;BME280;29527;55.766;37.570;2022-10-31T01:22:22;98081.00;;;1.94;54.10
37792;BME280;29527;55.766;37.570;2022-10-31T01:24:48;98075.72;;;1.94;54.10
37792;BME280;29527;55.766;37.570;2022-10-31T01:27:13;98065.19;;;1.94;54.45
37792;BME280;29527;55.766;37.570;2022-10-31T01:29:39;98075.88;;;2.04;54.60
37792;BME280;29527;55.766;37.570;2022-10-31T01:32:04;98078.88;;;1.99;55.13
37792;BME280;29527;55.766;37.570;2022-10-31T01:34:30;98095.53;;;1.99;55.49
37792;BME280;29527;55.766;37.570;2022-10-31T01:36:55;98050.91;;;1.72;56.59
37792;BME280;29527;55.766;37.570;2022-10-31T01:39:20;98095.13;;;1.93;56.91
37792;BME280;29527;55.766;37.570;2022-10-31T01:41:49;98087.56;;;1.88;57.32
37792;BME280;29527;55.766;37.570;2022-10-31T01:46:44;98085.16;;;1.85;58.03
37792;BME280;29527;55.766;37.570;2022-10-31T01:55:39;98088.25;;;1.66;59.62
37792;BME280;29527;55.766;37.570;2022-10-31T01:58:02;98102.09;;;1.69;59.49
37792;BME280;29527;55.766;37.570;2022-10-31T02:00:29;98111.72;;;1.57;60.65
37792;BME280;29527;55.766;37.570;2022-10-31T02:02:55;98112.16;;;1.51;61.31
37792;BME280;29527;55.766;37.570;2022-10-31T02:05:26;98108.81;;;1.49;61.23
37792;BME280;29527;55.766;37.570;2022-10-31T02:08:10;98109.63;;;1.50;61.96
37792;BME280;29527;55.766;37.570;2022-10-31T02:10:40;98101.75;;;1.37;62.21
37792;BME280;29527;55.766;37.570;2022-10-31T02:13:07;98118.50;;;1.36;62.70
37792;BME280;29527;55.766;37.570;2022-10-31T02:15:35;98113.25;;;1.36;63.12
37792;BME280;29527;55.766;37.570;2022-10-31T02:18:01;98116.72;;;1.36;63.54
37792;BME280;29527;55.766;37.570;2022-10-31T02:20:33;98110.28;;;1.40;63.74
37792;BME280;29527;55.766;37.570;2022-10-31T02:34:23;98102.28;;;1.29;64.97
37792;BME280;29527;55.766;37.570;2022-10-31T02:37:00;98099.53;;;1.31;65.45
37792;BME280;29527;55.766;37.570;2022-10-31T02:39:35;98106.28;;;1.35;65.34
37792;BME280;29527;55.766;37.570;2022-10-31T02:42:27;98109.44;;;1.40;64.70
37792;BME280;29527;55.766;37.570;2022-10-31T02:45:48;98110.09;;;1.31;65.22
37792;BME280;29527;55.766;37.570;2022-10-31T02:47:56;98108.94;;;1.09;66.83
37792;BME280;29527;55.766;37.570;2022-10-31T02:50:28;98108.22;;;1.07;67.25
37792;BME280;29527;55.766;37.570;2022-10-31T02:52:56;98098.09;;;1.00;67.62
37792;BME280;29527;55.766;37.570;2022-10-31T02:57:57;98104.63;;;1.08;67.37
37792;BME280;29527;55.766;37.570;2022-10-31T03:00:24;98112.84;;;1.16;66.53
37792;BME280;29527;55.766;37.570;2022-10-31T03:13:39;98118.53;;;1.10;67.40
37792;BME280;29527;55.766;37.570;2022-10-31T03:16:20;98122.13;;;1.09;67.41
37792;BME280;29527;55.766;37.570;2022-10-31T03:19:09;98116.00;;;1.08;67.48
37792;BME280;29527;55.766;37.570;2022-10-31T03:21:57;98114.94;;;1.11;66.16
37792;BME280;29527;55.766;37.570;2022-10-31T03:24:29;98121.47;;;0.92;67.46
37792;BME280;29527;55.766;37.570;2022-10-31T03:26:58;98110.22;;;0.90;67.77
37792;BME280;29527;55.766;37.570;2022-10-31T03:29:27;98110.53;;;0.85;67.67
37792;BME280;29527;55.766;37.570;2022-10-31T03:31:57;98097.38;;;0.73;68.29
37792;BME280;29527;55.766;37.570;2022-10-31T03:34:23;98103.16;;;0.91;67.50
37792;BME280;29527;55.766;37.570;2022-10-31T03:36:51;98108.53;;;1.02;67.47
37792;BME280;29527;55.766;37.570;2022-10-31T03:39:20;98111.50;;;1.10;67.07
37792;BME280;29527;55.766;37.570;2022-10-31T03:41:54;98105.34;;;1.10;67.58
37792;BME280;29527;55.766;37.570;2022-10-31T03:44:22;98111.59;;;1.09;67.19
37792;BME280;29527;55.766;37.570;2022-10-31T03:46:49;98119.59;;;1.07;67.53
37792;BME280;29527;55.766;37.570;2022-10-31T03:49:15;98112.75;;;1.05;68.03
37792;BME280;29527;55.766;37.570;2022-10-31T03:51:54;98116.63;;;1.12;67.81
37792;BME280;29527;55.766;37.570;2022-10-31T03:54:30;98121.91;;;1.12;68.13
37792;BME280;29527;55.766;37.570;2022-10-31T04:00:00;98121.28;;;1.21;67.24
37792;BME280;29527;55.766;37.570;2022-10-31T04:02:31;98120.66;;;1.18;67.45
37792;BME280;29527;55.766;37.570;2022-10-31T04:04:58;98112.75;;;1.18;67.61
37792;BME280;29527;55.766;37.570;2022-10-31T04:07:27;98127.47;;;1.20;67.15
37792;BME280;29527;55.766;37.570;2022-10-31T04:09:54;98129.09;;;1.10;67.49
37792;BME280;29527;55.766;37.570;2022-10-31T04:12:21;98121.47;;;1.05;67.38
37792;BME280;29527;55.766;37.570;2022-10-31T04:14:51;98126.53;;;1.08;67.60
37792;BME280;29527;55.766;37.570;2022-10-31T04:17:20;98101.03;;;0.96;67.30
37792;BME280;29527;55.766;37.570;2022-10-31T04:19:47;98140.38;;;1.12;67.63
37792;BME280;29527;55.766;37.570;2022-10-31T04:22:13;98124.97;;;1.06;67.73
37792;BME280;29527;55.766;37.570;2022-10-31T04:24:39;98144.69;;;1.13;67.39
37792;BME280;29527;55.766;37.570;2022-10-31T04:27:05;98144.06;;;1.09;68.09
37792;BME280;29527;55.766;37.570;2022-10-31T04:29:30;98154.28;;;1.14;67.59
37792;BME280;29527;55.766;37.570;2022-10-31T04:31:56;98152.16;;;1.06;68.63
37792;BME280;29527;55.766;37.570;2022-10-31T04:34:21;98151.44;;;1.04;68.48
37792;BME280;29527;55.766;37.570;2022-10-31T04:36:47;98156.91;;;1.14;67.64
37792;BME280;29527;55.766;37.570;2022-10-31T04:39:12;98171.91;;;1.13;67.67
37792;BME280;29527;55.766;37.570;2022-10-31T04:41:37;98169.34;;;1.12;68.21
37792;BME280;29527;55.766;37.570;2022-10-31T04:44:03;98175.28;;;1.16;68.46
37792;BME280;29527;55.766;37.570;2022-10-31T04:46:29;98168.09;;;1.18;68.22
37792;BME280;29527;55.766;37.570;2022-10-31T04:48:54;98174.63;;;1.25;67.56
37792;BME280;29527;55.766;37.570;2022-10-31T04:51:19;98166.09;;;1.21;67.48
37792;BME280;29527;55.766;37.570;2022-10-31T04:53:45;98168.94;;;1.18;68.11
37792;BME280;29527;55.766;37.570;2022-10-31T04:56:10;98172.72;;;1.27;67.16
37792;BME280;29527;55.766;37.570;2022-10-31T04:58:36;98167.25;;;1.17;67.98
37792;BME280;29527;55.766;37.570;2022-10-31T05:01:01;98170.81;;;1.16;67.81
37792;BME280;29527;55.766;37.570;2022-10-31T05:03:27;98187.50;;;1.29;67.42
37792;BME280;29527;55.766;37.570;2022-10-31T05:05:52;98190.66;;;1.35;67.10
37792;BME280;29527;55.766;37.570;2022-10-31T05:08:17;98181.72;;;1.24;67.58
37792;BME280;29527;55.766;37.570;2022-10-31T05:10:43;98189.19;;;1.31;67.85
37792;BME280;29527;55.766;37.570;2022-10-31T05:13:09;98205.66;;;1.34;67.47
37792;BME280;29527;55.766;37.570;2022-10-31T05:15:34;98203.75;;;1.36;67.55
37792;BME280;29527;55.766;37.570;2022-10-31T05:18:00;98207.88;;;1.40;67.92
37792;BME280;29527;55.766;37.570;2022-10-31T05:20:27;98218.94;;;1.46;67.16
37792;BME280;29527;55.766;37.570;2022-10-31T05:22:55;98210.50;;;1.53;67.11
37792;BME280;29527;55.766;37.570;2022-10-31T05:25:23;98217.88;;;1.61;66.54
37792;BME280;29527;55.766;37.570;2022-10-31T05:27:50;98228.31;;;1.63;66.81
37792;BME280;29527;55.766;37.570;2022-10-31T05:30:19;98216.06;;;1.62;66.73
37792;BME280;29527;55.766;37.570;2022-10-31T05:32:46;98235.59;;;1.59;66.46
37792;BME280;29527;55.766;37.570;2022-10-31T05:35:26;98245.09;;;1.62;66.69
37792;BME280;29527;55.766;37.570;2022-10-31T05:37:52;98244.13;;;1.63;66.92
37792;BME280;29527;55.766;37.570;2022-10-31T05:40:19;98246.25;;;1.70;66.19
37792;BME280;29527;55.766;37.570;2022-10-31T05:42:45;98250.88;;;1.80;66.44
37792;BME280;29527;55.766;37.570;2022-10-31T05:45:14;98260.47;;;1.81;66.00
37792;BME280;29527;55.766;37.570;2022-10-31T05:47:40;98265.44;;;1.72;65.72
37792;BME280;29527;55.766;37.570;2022-10-31T05:50:07;98262.28;;;1.80;66.06
37792;BME280;29527;55.766;37.570;2022-10-31T05:52:33;98267.25;;;1.85;66.18
37792;BME280;29527;55.766;37.570;2022-10-31T05:54:58;98272.59;;;1.96;65.81
37792;BME280;29527;55.766;37.570;2022-10-31T05:57:24;98288.16;;;1.88;66.24
37792;BME280;29527;55.766;37.570;2022-10-31T05:59:49;98287.28;;;1.88;66.58
37792;BME280;29527;55.766;37.570;2022-10-31T06:02:21;98291.94;;;1.97;66.87
37792;BME280;29527;55.766;37.570;2022-10-31T06:04:46;98295.94;;;2.03;66.48
37792;BME280;29527;55.766;37.570;2022-10-31T06:07:12;98310.50;;;2.08;66.45
37792;BME280;29527;55.766;37.570;2022-10-31T06:09:37;98309.78;;;2.06;66.38
37792;BME280;29527;55.766;37.570;2022-10-31T06:12:03;98319.06;;;2.12;66.51
37792;BME280;29527;55.766;37.570;2022-10-31T06:14:28;98329.19;;;2.18;65.90
37792;BME280;29527;55.766;37.570;2022-10-31T06:16:54;98319.25;;;2.22;65.81
37792;BME280;29527;55.766;37.570;2022-10-31T06:19:20;98324.09;;;2.28;65.99
37792;BME280;29527;55.766;37.570;2022-10-31T06:21:46;98330.63;;;2.35;66.55
37792;BME280;29527;55.766;37.570;2022-10-31T06:24:11;98338.75;;;2.45;65.87
37792;BME280;29527;55.766;37.570;2022-10-31T06:26:36;98338.13;;;2.54;65.84
37792;BME280;29527;55.766;37.570;2022-10-31T06:29:02;98345.91;;;2.56;65.50
37792;BME280;29527;55.766;37.570;2022-10-31T06:31:27;98358.47;;;2.65;65.24
37792;BME280;29527;55.766;37.570;2022-10-31T06:33:53;98363.63;;;2.67;65.83
37792;BME280;29527;55.766;37.570;2022-10-31T06:36:18;98364.28;;;2.70;65.18
37792;BME280;29527;55.766;37.570;2022-10-31T06:38:43;98375.91;;;2.68;64.93
37792;BME280;29527;55.766;37.570;2022-10-31T06:41:09;98387.34;;;2.68;65.49
37792;BME280;29527;55.766;37.570;2022-10-31T06:43:34;98392.63;;;2.68;65.25
37792;BME280;29527;55.766;37.570;2022-10-31T06:46:04;98388.56;;;2.76;65.69
37792;BME280;29527;55.766;37.570;2022-10-31T06:48:30;98394.88;;;2.86;65.95
37792;BME280;29527;55.766;37.570;2022-10-31T06:50:59;98399.53;;;2.95;65.33
37792;BME280;29527;55.766;37.570;2022-10-31T06:53:26;98407.28;;;3.10;65.18
37792;BME280;29527;55.766;37.570;2022-10-31T06:55:51;98406.16;;;3.25;65.02
37792;BME280;29527;55.766;37.570;2022-10-31T06:58:17;98424.31;;;3.43;64.49
37792;BME280;29527;55.766;37.570;2022-10-31T07:00:42;98416.78;;;3.61;63.80
37792;BME280;29527;55.766;37.570;2022-10-31T07:03:12;98396.84;;;3.68;63.52
37792;BME280;29527;55.766;37.570;2022-10-31T07:05:38;98428.34;;;3.96;62.68
37792;BME280;29527;55.766;37.570;2022-10-31T07:08:07;98430.03;;;4.08;62.83
37792;BME280;29527;55.766;37.570;2022-10-31T07:10:34;98449.19;;;4.12;61.97
37792;BME280;29527;55.766;37.570;2022-10-31T07:13:02;98453.84;;;3.97;62.74
37792;BME280;29527;55.766;37.570;2022-10-31T07:15:30;98462.44;;;3.76;63.53
37792;BME280;29527;55.766;37.570;2022-10-31T07:18:04;98480.47;;;3.71;63.98
37792;BME280;29527;55.766;37.570;2022-10-31T07:20:31;98484.69;;;3.73;63.55
37792;BME280;29527;55.766;37.570;2022-10-31T07:22:57;98474.94;;;3.74;63.12
37792;BME280;29527;55.766;37.570;2022-10-31T07:25:23;98485.78;;;3.71;63.04
37792;BME280;29527;55.766;37.570;2022-10-31T07:27:49;98495.13;;;3.64;63.26
37792;BME280;29527;55.766;37.570;2022-10-31T07:30:15;98499.34;;;3.66;63.98
37792;BME280;29527;55.766;37.570;2022-10-31T07:32:47;98506.72;;;3.74;63.10
37792;BME280;29527;55.766;37.570;2022-10-31T07:35:15;98522.16;;;3.80;63.25
37792;BME280;29527;55.766;37.570;2022-10-31T07:37:41;98527.84;;;3.87;63.46
37792;BME280;29527;55.766;37.570;2022-10-31T07:40:07;98534.38;;;3.94;63.23
37792;BME280;29527;55.766;37.570;2022-10-31T07:42:41;98548.75;;;3.79;64.10
37792;BME280;29527;55.766;37.570;2022-10-31T07:45:10;98551.44;;;3.66;65.28
37792;BME280;29527;55.766;37.570;2022-10-31T07:50:05;98562.47;;;3.59;65.47
37792;BME280;29527;55.766;37.570;2022-10-31T07:52:31;98573.50;;;3.53;64.90
37792;BME280;29527;55.766;37.570;2022-10-31T07:54:56;98574.44;;;3.52;64.90
37792;BME280;29527;55.766;37.570;2022-10-31T07:57:21;98586.00;;;3.51;65.81
37792;BME280;29527;55.766;37.570;2022-10-31T07:59:47;98573.03;;;3.59;64.58
37792;BME280;29527;55.766;37.570;2022-10-31T08:02:12;98576.31;;;3.63;64.79
37792;BME280;29527;55.766;37.570;2022-10-31T08:04:38;98585.13;;;3.64;64.65
37792;BME280;29527;55.766;37.570;2022-10-31T08:07:03;98577.56;;;3.70;64.25
37792;BME280;29527;55.766;37.570;2022-10-31T08:09:29;98588.00;;;3.85;63.75
37792;BME280;29527;55.766;37.570;2022-10-31T08:11:54;98596.41;;;4.03;63.62
37792;BME280;29527;55.766;37.570;2022-10-31T08:14:19;98602.53;;;4.28;62.44
37792;BME280;29527;55.766;37.570;2022-10-31T08:16:45;98595.28;;;4.54;61.24
37792;BME280;29527;55.766;37.570;2022-10-31T08:19:10;98603.50;;;4.63;60.88
37792;BME280;29527;55.766;37.570;2022-10-31T08:21:36;98607.38;;;4.70;60.40
37792;BME280;29527;55.766;37.570;2022-10-31T08:24:01;98606.06;;;4.76;59.93
37792;BME280;29527;55.766;37.570;2022-10-31T08:26:27;98614.31;;;4.84;58.97
37792;BME280;29527;55.766;37.570;2022-10-31T08:28:52;98625.78;;;5.07;59.02
37792;BME280;29527;55.766;37.570;2022-10-31T08:31:20;98629.41;;;5.17;58.49
37792;BME280;29527;55.766;37.570;2022-10-31T08:33:45;98635.81;;;5.26;58.01
37792;BME280;29527;55.766;37.570;2022-10-31T08:36:11;98637.28;;;5.42;58.51
37792;BME280;29527;55.766;37.570;2022-10-31T08:38:36;98634.59;;;5.53;57.95
37792;BME280;29527;55.766;37.570;2022-10-31T08:41:01;98641.72;;;5.64;57.64
37792;BME280;29527;55.766;37.570;2022-10-31T08:43:27;98651.03;;;5.70;56.46
37792;BME280;29527;55.766;37.570;2022-10-31T08:45:52;98660.31;;;5.64;56.36
37792;BME280;29527;55.766;37.570;2022-10-31T08:48:20;98641.38;;;5.35;56.49
37792;BME280;29527;55.766;37.570;2022-10-31T08:50:46;98669.63;;;5.36;56.25
37792;BME280;29527;55.766;37.570;2022-10-31T08:53:15;98677.31;;;5.27;56.91
37792;BME280;29527;55.766;37.570;2022-10-31T08:55:41;98675.13;;;5.21;56.39
37792;BME280;29527;55.766;37.570;2022-10-31T08:58:10;98665.00;;;5.15;55.37
37792;BME280;29527;55.766;37.570;2022-10-31T09:00:36;98678.75;;;5.09;56.09
37792;BME280;29527;55.766;37.570;2022-10-31T09:03:05;98682.34;;;5.08;55.99
37792;BME280;29527;55.766;37.570;2022-10-31T09:05:32;98696.94;;;5.02;55.80
37792;BME280;29527;55.766;37.570;2022-10-31T09:07:58;98691.00;;;4.98;55.61
37792;BME280;29527;55.766;37.570;2022-10-31T09:10:25;98698.72;;;5.01;56.40
37792;BME280;29527;55.766;37.570;2022-10-31T09:12:58;98686.09;;;4.81;55.39
37792;BME280;29527;55.766;37.570;2022-10-31T09:15:25;98712.22;;;4.98;54.85
37792;BME280;29527;55.766;37.570;2022-10-31T09:17:51;98698.13;;;4.98;54.57
37792;BME280;29527;55.766;37.570;2022-10-31T09:20:17;98705.03;;;5.12;53.04
37792;BME280;29527;55.766;37.570;2022-10-31T09:22:43;98702.81;;;5.06;53.04
37792;BME280;29527;55.766;37.570;2022-10-31T09:25:08;98675.22;;;4.97;52.67
37792;BME280;29527;55.766;37.570;2022-10-31T09:27:34;98706.16;;;5.21;52.58
37792;BME280;29527;55.766;37.570;2022-10-31T09:29:59;98712.53;;;5.29;53.26
37792;BME280;29527;55.766;37.570;2022-10-31T09:32:25;98709.78;;;5.42;52.67
37792;BME280;29527;55.766;37.570;2022-10-31T09:34:50;98724.72;;;5.32;53.11
37792;BME280;29527;55.766;37.570;2022-10-31T09:37:15;98728.44;;;5.29;52.92
37792;BME280;29527;55.766;37.570;2022-10-31T09:39:41;98730.53;;;5.37;53.27
37792;BME280;29527;55.766;37.570;2022-10-31T09:52:33;98723.59;;;5.70;52.22
37792;BME280;29527;55.766;37.570;2022-10-31T09:57:33;98764.72;;;5.76;53.07
37792;BME280;29527;55.766;37.570;2022-10-31T10:00:00;98775.38;;;5.87;52.67
37792;BME280;29527;55.766;37.570;2022-10-31T10:05:10;98800.88;;;6.13;53.56
37792;BME280;29527;55.766;37.570;2022-10-31T10:08:01;98787.22;;;5.95;53.78
37792;BME280;29527;55.766;37.570;2022-10-31T10:13:55;98812.28;;;5.68;55.36
37792;BME280;29527;55.766;37.570;2022-10-31T10:22:38;98823.00;;;6.36;54.45
37792;BME280;29527;55.766;37.570;2022-10-31T10:25:15;98833.41;;;6.28;53.58
37792;BME280;29527;55.766;37.570;2022-10-31T10:30:41;98850.53;;;6.01;55.50
37792;BME280;29527;55.766;37.570;2022-10-31T10:33:11;98823.09;;;6.00;55.79
37792;BME280;29527;55.766;37.570;2022-10-31T10:35:58;98849.34;;;6.16;55.05
37792;BME280;29527;55.766;37.570;2022-10-31T10:38:34;98842.09;;;6.18;53.89
37792;BME280;29527;55.766;37.570;2022-10-31T10:41:07;98849.09;;;6.20;53.69
37792;BME280;29527;55.766;37.570;2022-10-31T10:43:38;98841.25;;;6.18;53.35
37792;BME280;29527;55.766;37.570;2022-10-31T10:51:36;98794.69;;;5.89;53.70
37792;BME280;29527;55.766;37.570;2022-10-31T10:56:51;98849.97;;;6.20;53.50
37792;BME280;29527;55.766;37.570;2022-10-31T10:59:21;98842.09;;;6.18;53.28
37792;BME280;29527;55.766;37.570;2022-10-31T11:01:51;98847.66;;;6.15;53.39
37792;BME280;29527;55.766;37.570;2022-10-31T11:07:00;98830.75;;;6.05;54.25
37792;BME280;29527;55.766;37.570;2022-10-31T11:09:26;98796.25;;;5.81;53.83
37792;BME280;29527;55.766;37.570;2022-10-31T11:11:53;98842.38;;;5.80;54.15
37792;BME280;29527;55.766;37.570;2022-10-31T11:14:20;98839.09;;;5.65;54.67
37792;BME280;29527;55.766;37.570;2022-10-31T11:16:50;98850.13;;;5.47;54.98
37792;BME280;29527;55.766;37.570;2022-10-31T11:19:20;98826.38;;;5.21;55.47
37792;BME280;29527;55.766;37.570;2022-10-31T11:21:47;98869.47;;;5.25;55.76
37792;BME280;29527;55.766;37.570;2022-10-31T11:26:42;98864.84;;;5.15;56.10
37792;BME280;29527;55.766;37.570;2022-10-31T11:29:17;98870.28;;;5.14;56.17
37792;BME280;29527;55.766;37.570;2022-10-31T11:31:45;98866.16;;;5.10;56.08
37792;BME280;29527;55.766;37.570;2022-10-31T11:34:42;98867.38;;;5.17;56.30
37792;BME280;29527;55.766;37.570;2022-10-31T11:37:15;98876.03;;;5.08;56.32
37792;BME280;29527;55.766;37.570;2022-10-31T11:39:49;98879.34;;;4.98;56.07
37792;BME280;29527;55.766;37.570;2022-10-31T11:42:21;98865.06;;;4.88;56.68
37792;BME280;29527;55.766;37.570;2022-10-31T11:44:48;98880.69;;;4.67;56.81
37792;BME280;29527;55.766;37.570;2022-10-31T11:47:16;98820.53;;;4.30;56.82
37792;BME280;29527;55.766;37.570;2022-10-31T11:49:45;98868.63;;;4.63;57.67
37792;BME280;29527;55.766;37.570;2022-10-31T11:52:20;98887.38;;;4.72;56.94
37792;BME280;29527;55.766;37.570;2022-10-31T11:54:53;98899.16;;;4.68;56.88
37792;BME280;29527;55.766;37.570;2022-10-31T11:57:32;98890.91;;;4.60;57.11
37792;BME280;29527;55.766;37.570;2022-10-31T12:00:00;98895.91;;;4.52;58.01
37792;BME280;29527;55.766;37.570;2022-10-31T12:02:29;98888.16;;;4.49;57.73
37792;BME280;29527;55.766;37.570;2022-10-31T12:05:08;98878.63;;;4.59;57.68
37792;BME280;29527;55.766;37.570;2022-10-31T12:07:36;98878.63;;;4.59;57.02
37792;BME280;29527;55.766;37.570;2022-10-31T12:10:10;98888.47;;;4.57;58.36
37792;BME280;29527;55.766;37.570;2022-10-31T12:15:11;98895.81;;;4.40;58.37
37792;BME280;29527;55.766;37.570;2022-10-31T12:17:52;98904.78;;;4.64;58.11
37792;BME280;29527;55.766;37.570;2022-10-31T12:20:54;98917.00;;;4.53;58.41
37792;BME280;29527;55.766;37.570;2022-10-31T12:37:48;98896.44;;;4.44;60.95
37792;BME280;29527;55.766;37.570;2022-10-31T12:48:44;98920.09;;;4.34;62.12
37792;BME280;29527;55.766;37.570;2022-10-31T12:51:36;98929.63;;;4.37;62.59
37792;BME280;29527;55.766;37.570;2022-10-31T12:54:19;98929.94;;;4.32;61.65
37792;BME280;29527;55.766;37.570;2022-10-31T12:59:34;98926.66;;;4.28;62.33
37792;BME280;29527;55.766;37.570;2022-10-31T13:02:13;98926.31;;;4.33;61.99
37792;BME280;29527;55.766;37.570;2022-10-31T13:04:50;98937.25;;;4.41;61.98
37792;BME280;29527;55.766;37.570;2022-10-31T13:07:28;98938.75;;;4.45;62.12
37792;BME280;29527;55.766;37.570;2022-10-31T13:10:02;98945.75;;;4.47;61.49
37792;BME280;29527;55.766;37.570;2022-10-31T13:12:31;98945.06;;;4.69;60.98
37792;BME280;29527;55.766;37.570;2022-10-31T13:15:03;98948.91;;;4.52;60.72
37792;BME280;29527;55.766;37.570;2022-10-31T13:17:43;98954.94;;;4.54;61.26
37792;BME280;29527;55.766;37.570;2022-10-31T13:20:33;98960.25;;;4.54;60.83
37792;BME280;29527;55.766;37.570;2022-10-31T13:23:11;98953.25;;;4.40;61.31
37792;BME280;29527;55.766;37.570;2022-10-31T13:25:45;98958.13;;;4.33;61.31
37792;BME280;29527;55.766;37.570;2022-10-31T13:30:55;98951.84;;;4.08;61.47
37792;BME280;29527;55.766;37.570;2022-10-31T13:33:27;98969.28;;;4.25;61.34
37792;BME280;29527;55.766;37.570;2022-10-31T13:38:44;98982.94;;;4.32;60.90
37792;BME280;29527;55.766;37.570;2022-10-31T13:44:02;98966.72;;;4.24;61.44
37792;BME280;29527;55.766;37.570;2022-10-31T13:48:59;98993.75;;;4.29;60.82
37792;BME280;29527;55.766;37.570;2022-10-31T13:51:30;98982.41;;;4.27;60.84
37792;BME280;29527;55.766;37.570;2022-10-31T13:54:20;99003.53;;;4.41;60.28
37792;BME280;29527;55.766;37.570;2022-10-31T13:56:49;99002.78;;;4.39;61.03
37792;BME280;29527;55.766;37.570;2022-10-31T13:59:18;98983.34;;;4.26;60.83
37792;BME280;29527;55.766;37.570;2022-10-31T14:04:24;99016.56;;;4.44;61.34
37792;BME280;29527;55.766;37.570;2022-10-31T14:09:29;99009.78;;;4.40;61.16
37792;BME280;29527;55.766;37.570;2022-10-31T14:11:58;99020.81;;;4.34;61.07
37792;BME280;29527;55.766;37.570;2022-10-31T14:14:31;99004.03;;;4.34;61.42
37792;BME280;29527;55.766;37.570;2022-10-31T14:16:59;99015.38;;;4.36;60.99
37792;BME280;29527;55.766;37.570;2022-10-31T14:19:24;99014.44;;;4.37;60.84
37792;BME280;29527;55.766;37.570;2022-10-31T14:21:51;99018.16;;;4.34;61.52
37792;BME280;29527;55.766;37.570;2022-10-31T14:26:53;99022.06;;;4.41;61.05
37792;BME280;29527;55.766;37.570;2022-10-31T14:29:27;99031.72;;;4.42;62.19
37792;BME280;29527;55.766;37.570;2022-10-31T14:32:04;99022.28;;;4.38;61.53
37792;BME280;29527;55.766;37.570;2022-10-31T14:34:40;99025.91;;;4.37;61.72
37792;BME280;29527;55.766;37.570;2022-10-31T14:43:02;99053.88;;;4.41;61.46
37792;BME280;29527;55.766;37.570;2022-10-31T14:50:57;99053.94;;;4.27;61.43
37792;BME280;29527;55.766;37.570;2022-10-31T14:55:54;99068.72;;;4.44;60.77
37792;BME280;29527;55.766;37.570;2022-10-31T14:58:24;99072.44;;;4.41;61.18
37792;BME280;29527;55.766;37.570;2022-10-31T15:00:56;99066.19;;;4.42;60.45
37792;BME280;29527;55.766;37.570;2022-10-31T15:03:27;99070.09;;;4.37;61.14
37792;BME280;29527;55.766;37.570;2022-10-31T15:05:55;99066.59;;;4.36;61.26
37792;BME280;29527;55.766;37.570;2022-10-31T15:08:45;99075.63;;;4.47;61.07
37792;BME280;29527;55.766;37.570;2022-10-31T15:11:22;99080.91;;;4.47;61.51
37792;BME280;29527;55.766;37.570;2022-10-31T15:13:56;99063.22;;;4.34;61.01
37792;BME280;29527;55.766;37.570;2022-10-31T15:16:25;99098.19;;;4.39;60.94
37792;BME280;29527;55.766;37.570;2022-10-31T15:18:57;99100.41;;;4.33;61.59
37792;BME280;29527;55.766;37.570;2022-10-31T15:21:26;99095.84;;;4.35;61.10
37792;BME280;29527;55.766;37.570;2022-10-31T15:24:00;99110.91;;;4.34;61.65
37792;BME280;29527;55.766;37.570;2022-10-31T15:26:34;99086.78;;;4.11;60.97
37792;BME280;29527;55.766;37.570;2022-10-31T15:29:04;99100.16;;;4.23;61.39
37792;BME280;29527;55.766;37.570;2022-10-31T15:31:30;99110.47;;;4.27;60.99